createdAt,value
2022-12-14T00:01:25.162Z,5.34
2022-12-14T00:03:52.362Z,5.31
2022-12-14T00:06:30.828Z,5.32
2022-12-14T00:08:59.571Z,5.34
2022-12-14T00:11:27.218Z,5.31
2022-12-14T00:13:59.142Z,5.36
2022-12-14T00:16:28.499Z,5.40
2022-12-14T00:18:56.983Z,5.35
2022-12-14T00:21:24.231Z,5.37
2022-12-14T00:23:52.371Z,5.37
2022-12-14T00:26:31.007Z,5.38
2022-12-14T00:28:59.330Z,5.33
2022-12-14T00:31:26.299Z,5.32
2022-12-14T00:33:53.086Z,5.32
2022-12-14T00:36:20.417Z,5.24
2022-12-14T00:38:46.842Z,5.09
2022-12-14T00:41:13.676Z,5.07
2022-12-14T00:43:40.973Z,5.11
2022-12-14T00:46:08.553Z,5.16
2022-12-14T00:48:35.557Z,5.20
2022-12-14T00:51:02.200Z,5.14
2022-12-14T00:53:28.777Z,5.21
2022-12-14T00:55:55.335Z,5.23
2022-12-14T00:58:24.071Z,5.26
2022-12-14T01:01:05.538Z,5.27
2022-12-14T01:03:33.383Z,5.26
2022-12-14T01:06:00.250Z,5.26
2022-12-14T01:08:35.237Z,5.22
2022-12-14T01:11:07.116Z,5.23
2022-12-14T01:13:34.851Z,5.26
2022-12-14T01:16:11.037Z,5.21
2022-12-14T01:18:39.250Z,5.19
2022-12-14T01:21:23.540Z,5.15
2022-12-14T01:23:58.912Z,5.16
2022-12-14T01:26:27.616Z,5.13
2022-12-14T01:28:57.364Z,5.17
2022-12-14T01:31:27.092Z,5.14
2022-12-14T01:33:54.352Z,5.15
2022-12-14T01:36:28.703Z,5.15
2022-12-14T01:39:01.245Z,5.12
2022-12-14T01:41:33.361Z,5.09
2022-12-14T01:44:07.410Z,5.12
2022-12-14T01:46:36.309Z,5.13
2022-12-14T01:49:30.266Z,5.12
2022-12-14T01:52:27.401Z,5.12
2022-12-14T01:55:04.943Z,5.08
2022-12-14T01:57:39.248Z,5.07
2022-12-14T02:00:09.440Z,5.06
2022-12-14T02:02:41.189Z,5.01
2022-12-14T02:05:11.104Z,4.96
2022-12-14T02:07:39.227Z,5.01
2022-12-14T02:10:06.961Z,5.04
2022-12-14T02:12:41.092Z,5.04
2022-12-14T02:15:08.223Z,5.01
2022-12-14T02:17:35.155Z,4.99
2022-12-14T02:20:03.811Z,4.95
2022-12-14T02:22:33.183Z,4.94
2022-12-14T02:25:49.489Z,4.92
2022-12-14T02:28:34.374Z,4.90
2022-12-14T02:31:38.549Z,4.88
2022-12-14T02:34:21.373Z,4.88
2022-12-14T02:37:00.450Z,4.82
2022-12-14T02:39:29.606Z,4.85
2022-12-14T02:42:11.140Z,4.83
2022-12-14T02:44:49.925Z,4.91
2022-12-14T02:47:39.152Z,4.86
2022-12-14T02:50:05.642Z,4.86
2022-12-14T02:52:47.483Z,4.86
2022-12-14T02:55:34.043Z,4.82
2022-12-14T02:58:06.207Z,4.72
2022-12-14T03:00:36.411Z,4.70
2022-12-14T03:03:05.850Z,4.63
2022-12-14T03:05:33.783Z,4.67
2022-12-14T03:08:14.306Z,4.60
2022-12-14T03:10:58.486Z,4.50
2022-12-14T03:13:36.896Z,4.58
2022-12-14T03:16:10.379Z,4.67
2022-12-14T03:18:42.654Z,4.75
2022-12-14T03:21:13.616Z,4.67
2022-12-14T03:23:43.811Z,4.57
2022-12-14T03:26:34.696Z,4.53
2022-12-14T03:29:08.895Z,4.59
2022-12-14T03:31:48.944Z,4.57
2022-12-14T03:34:19.681Z,4.56
2022-12-14T03:36:53.647Z,4.49
2022-12-14T03:39:28.214Z,4.50
2022-12-14T03:42:24.565Z,4.54
2022-12-14T03:45:05.054Z,4.61
2022-12-14T03:48:02.240Z,4.57
2022-12-14T03:50:44.890Z,4.54
2022-12-14T03:53:30.190Z,4.44
2022-12-14T03:56:23.390Z,4.31
2022-12-14T03:59:30.877Z,4.27
2022-12-14T04:02:13.883Z,4.05
2022-12-14T04:04:51.712Z,4.02
2022-12-14T04:07:26.906Z,3.98
2022-12-14T04:10:02.144Z,4.04
2022-12-14T04:12:53.221Z,4.19
2022-12-14T04:15:45.686Z,4.20
2022-12-14T04:18:40.046Z,4.18
2022-12-14T04:21:32.393Z,4.21
2022-12-14T04:24:22.567Z,4.16
2022-12-14T04:26:56.707Z,4.14
2022-12-14T04:29:47.414Z,4.14
2022-12-14T04:32:17.820Z,4.11
2022-12-14T04:34:46.736Z,4.05
2022-12-14T04:37:16.897Z,4.12
2022-12-14T04:39:49.886Z,4.16
2022-12-14T04:42:18.122Z,4.16
2022-12-14T04:44:49.006Z,4.20
2022-12-14T04:47:17.758Z,4.27
2022-12-14T04:50:01.938Z,4.28
2022-12-14T04:52:51.337Z,4.05
2022-12-14T04:55:39.083Z,4.06
2022-12-14T04:58:29.818Z,4.04
2022-12-14T05:01:34.235Z,4.16
2022-12-14T05:04:26.055Z,4.22
2022-12-14T05:07:11.281Z,4.29
2022-12-14T05:09:52.586Z,4.28
2022-12-14T05:12:30.458Z,4.29
2022-12-14T05:15:10.953Z,4.39
2022-12-14T05:17:38.857Z,4.41
2022-12-14T05:20:07.037Z,4.44
2022-12-14T05:22:33.644Z,4.48
2022-12-14T05:25:00.168Z,4.49
2022-12-14T05:27:26.644Z,4.37
2022-12-14T05:29:53.195Z,4.30
2022-12-14T05:32:19.797Z,4.27
2022-12-14T05:34:46.351Z,4.26
2022-12-14T05:37:17.899Z,4.17
2022-12-14T05:39:44.903Z,4.25
2022-12-14T05:42:11.433Z,4.24
2022-12-14T05:44:37.945Z,4.31
2022-12-14T05:47:05.132Z,4.23
2022-12-14T05:49:31.681Z,4.01
2022-12-14T05:51:58.225Z,4.04
2022-12-14T05:54:24.844Z,4.14
2022-12-14T05:56:51.540Z,4.22
2022-12-14T05:59:18.476Z,4.28
2022-12-14T06:01:50.534Z,4.28
2022-12-14T06:04:18.540Z,4.27
2022-12-14T06:06:45.345Z,4.29
2022-12-14T06:09:15.718Z,4.22
2022-12-14T06:11:42.934Z,4.30
2022-12-14T06:14:10.379Z,4.37
2022-12-14T06:16:40.470Z,4.34
2022-12-14T06:19:07.514Z,4.32
2022-12-14T06:21:36.949Z,4.18
2022-12-14T06:24:04.163Z,4.24
2022-12-14T06:26:31.705Z,4.30
2022-12-14T06:28:58.782Z,4.33
2022-12-14T06:31:29.160Z,4.34
2022-12-14T06:33:59.473Z,4.32
2022-12-14T06:36:32.080Z,4.33
2022-12-14T06:39:02.745Z,4.39
2022-12-14T06:41:29.563Z,4.17
2022-12-14T06:43:57.130Z,4.18
2022-12-14T06:46:24.355Z,4.19
2022-12-14T06:48:52.218Z,4.31
2022-12-14T06:51:20.353Z,4.10
2022-12-14T06:53:50.969Z,4.01
2022-12-14T06:56:19.280Z,4.16
2022-12-14T06:58:46.221Z,4.15
2022-12-14T07:01:24.753Z,4.18
2022-12-14T07:03:53.812Z,4.21
2022-12-14T07:06:22.184Z,4.26
2022-12-14T07:08:49.535Z,4.29
2022-12-14T07:11:17.122Z,4.23
2022-12-14T07:13:44.227Z,4.28
2022-12-14T07:16:19.691Z,4.22
2022-12-14T07:18:46.366Z,4.38
2022-12-14T07:21:14.856Z,4.36
2022-12-14T07:23:44.118Z,4.38
2022-12-14T07:26:18.274Z,4.38
2022-12-14T07:28:45.765Z,4.46
2022-12-14T07:31:21.241Z,4.44
2022-12-14T07:33:48.442Z,4.54
2022-12-14T07:36:17.402Z,4.66
2022-12-14T07:38:45.987Z,4.69
2022-12-14T07:41:22.715Z,4.74
2022-12-14T07:43:50.682Z,4.69
2022-12-14T07:46:20.843Z,4.70
2022-12-14T07:48:49.867Z,4.76
2022-12-14T07:51:19.415Z,4.83
2022-12-14T07:53:46.103Z,4.84
2022-12-14T07:56:15.551Z,4.81
2022-12-14T07:58:43.352Z,4.73
2022-12-14T08:01:22.364Z,4.75
2022-12-14T08:03:57.539Z,4.85
2022-12-14T08:06:26.726Z,4.87
2022-12-14T08:08:53.831Z,4.87
2022-12-14T08:11:23.542Z,4.79
2022-12-14T08:13:58.492Z,4.77
2022-12-14T08:16:26.269Z,4.85
2022-12-14T08:18:54.611Z,4.81
2022-12-14T08:21:22.507Z,4.73
2022-12-14T08:23:50.840Z,4.69
2022-12-14T08:26:18.286Z,4.61
2022-12-14T08:28:45.002Z,4.53
2022-12-14T08:31:15.471Z,4.44
2022-12-14T08:33:43.195Z,4.58
2022-12-14T08:36:12.833Z,4.65
2022-12-14T08:38:42.847Z,4.65
2022-12-14T08:41:14.613Z,4.77
2022-12-14T08:43:41.546Z,4.79
2022-12-14T08:46:09.617Z,4.91
2022-12-14T08:48:36.640Z,5.10
2022-12-14T08:51:09.136Z,5.18
2022-12-14T08:53:36.909Z,5.21
2022-12-14T08:56:12.055Z,5.23
2022-12-14T08:58:40.507Z,5.29
2022-12-14T09:01:12.177Z,5.24
2022-12-14T09:03:40.127Z,5.41
2022-12-14T09:06:09.273Z,5.42
2022-12-14T09:08:36.315Z,5.19
2022-12-14T09:11:04.774Z,5.24
2022-12-14T09:13:33.060Z,5.24
2022-12-14T09:16:05.668Z,5.21
2022-12-14T09:18:33.858Z,5.13
2022-12-14T09:21:01.473Z,5.22
2022-12-14T09:23:30.731Z,5.27
2022-12-14T09:26:01.395Z,5.26
2022-12-14T09:28:28.605Z,5.30
2022-12-14T09:30:57.303Z,5.32
2022-12-14T09:33:25.134Z,5.32
2022-12-14T09:35:51.706Z,5.31
2022-12-14T09:38:18.854Z,5.33
2022-12-14T09:40:55.845Z,5.36
2022-12-14T09:43:37.111Z,5.41
2022-12-14T09:46:19.890Z,5.42
2022-12-14T09:48:47.537Z,5.44
2022-12-14T09:51:17.515Z,5.37
2022-12-14T09:53:47.318Z,5.50
2022-12-14T09:56:19.313Z,5.72
2022-12-14T09:58:55.234Z,5.80
2022-12-14T10:01:24.770Z,5.86
2022-12-14T10:03:58.348Z,5.94
2022-12-14T10:07:04.712Z,5.96
2022-12-14T10:09:49.561Z,6.04
2022-12-14T10:12:33.970Z,6.10
2022-12-14T10:15:22.592Z,6.16
2022-12-14T10:18:34.061Z,6.23
2022-12-14T10:21:18.981Z,6.29
2022-12-14T10:23:51.131Z,6.43
2022-12-14T10:26:22.238Z,6.53
2022-12-14T10:29:01.803Z,6.62
2022-12-14T10:31:35.048Z,6.69
2022-12-14T10:34:15.603Z,6.69
2022-12-14T10:36:52.880Z,6.65
2022-12-14T10:39:23.519Z,6.73
2022-12-14T10:42:03.047Z,6.83
2022-12-14T10:45:04.316Z,6.89
2022-12-14T10:47:42.852Z,6.86
2022-12-14T10:50:31.382Z,6.83
2022-12-14T10:52:59.730Z,6.85
2022-12-14T10:55:34.392Z,6.77
2022-12-14T10:58:01.481Z,6.51
2022-12-14T11:00:28.140Z,6.49
2022-12-14T11:02:57.251Z,6.57
2022-12-14T11:05:31.125Z,6.48
2022-12-14T11:08:00.902Z,6.53
2022-12-14T11:10:30.312Z,6.54
2022-12-14T11:13:05.205Z,6.66
2022-12-14T11:15:40.959Z,6.66
2022-12-14T11:18:16.757Z,6.53
2022-12-14T11:21:02.963Z,6.53
2022-12-14T11:23:36.532Z,6.62
2022-12-14T11:26:06.800Z,6.75
2022-12-14T11:28:41.510Z,6.79
2022-12-14T11:31:21.049Z,6.85
2022-12-14T11:33:50.823Z,6.94
2022-12-14T11:36:28.433Z,6.97
2022-12-14T11:39:00.664Z,7.02
2022-12-14T11:41:39.350Z,7.11
2022-12-14T11:44:15.559Z,7.17
2022-12-14T11:46:56.496Z,7.16
2022-12-14T11:49:38.463Z,7.08
2022-12-14T11:52:04.935Z,7.14
2022-12-14T11:54:32.808Z,7.10
2022-12-14T11:57:21.916Z,7.02
2022-12-14T11:59:48.408Z,7.10
2022-12-14T12:02:30.273Z,7.11
2022-12-14T12:05:11.418Z,7.18
2022-12-14T12:07:42.576Z,7.22
2022-12-14T12:10:21.004Z,7.24
2022-12-14T12:12:58.004Z,7.26
2022-12-14T12:15:33.262Z,7.32
2022-12-14T12:18:05.299Z,7.33
2022-12-14T12:20:43.157Z,7.38
2022-12-14T12:23:16.220Z,7.48
2022-12-14T12:25:45.217Z,7.49
2022-12-14T12:28:30.883Z,7.58
2022-12-14T12:31:10.682Z,7.63
2022-12-14T12:33:45.636Z,7.68
2022-12-14T12:36:13.174Z,7.74
2022-12-14T12:38:57.772Z,7.77
2022-12-14T12:41:34.635Z,7.77
2022-12-14T12:44:17.723Z,7.75
2022-12-14T12:47:25.132Z,7.75
2022-12-14T12:49:53.440Z,7.68
2022-12-14T12:52:31.418Z,7.70
2022-12-14T12:55:08.293Z,7.69
2022-12-14T12:57:40.736Z,7.71
2022-12-14T13:00:08.295Z,7.77
2022-12-14T13:02:42.701Z,7.72
2022-12-14T13:05:44.985Z,7.74
2022-12-14T13:08:07.691Z,7.77
2022-12-14T13:10:55.753Z,7.78
2022-12-14T13:13:31.215Z,7.81
2022-12-14T13:16:10.720Z,7.83
2022-12-14T13:18:59.708Z,7.83
2022-12-14T13:21:28.238Z,7.91
2022-12-14T13:23:54.930Z,7.89
2022-12-14T13:27:04.552Z,7.97
2022-12-14T13:29:59.126Z,7.94
2022-12-14T13:32:48.885Z,7.96
2022-12-14T13:35:51.077Z,7.92
2022-12-14T13:38:33.730Z,7.97
2022-12-14T13:41:15.546Z,8.03
2022-12-14T13:44:07.954Z,7.99
2022-12-14T13:46:34.877Z,7.99
2022-12-14T13:49:06.435Z,7.92
2022-12-14T13:51:38.859Z,7.92
2022-12-14T13:54:22.688Z,7.93
2022-12-14T13:56:49.398Z,7.94
2022-12-14T13:59:31.075Z,7.93
2022-12-14T14:02:00.429Z,7.96
2022-12-14T14:04:29.901Z,7.98
2022-12-14T14:07:19.192Z,7.93
2022-12-14T14:10:06.474Z,7.95
2022-12-14T14:12:43.998Z,7.96
2022-12-14T14:15:26.517Z,7.91
2022-12-14T14:17:55.225Z,7.98
2022-12-14T14:20:41.446Z,7.94
2022-12-14T14:23:30.110Z,8.03
2022-12-14T14:26:22.981Z,8.01
2022-12-14T14:29:21.746Z,8.04
2022-12-14T14:31:57.410Z,7.94
2022-12-14T14:34:29.179Z,7.98
2022-12-14T14:36:56.304Z,7.92
2022-12-14T14:39:56.151Z,7.94
2022-12-14T14:42:29.523Z,7.99
2022-12-14T14:45:02.553Z,7.94
2022-12-14T14:47:35.813Z,7.96
2022-12-14T14:50:08.429Z,8.02
2022-12-14T14:52:37.828Z,8.00
2022-12-14T14:55:51.966Z,7.97
2022-12-14T14:58:25.288Z,7.99
2022-12-14T15:01:03.833Z,8.01
2022-12-14T15:04:04.348Z,8.05
2022-12-14T15:06:40.872Z,8.06
2022-12-14T15:09:19.924Z,8.09
2022-12-14T15:11:56.735Z,8.14
2022-12-14T15:14:46.621Z,8.20
2022-12-14T15:17:25.206Z,8.17
2022-12-14T15:19:53.280Z,8.24
2022-12-14T15:22:22.680Z,8.18
2022-12-14T15:24:56.431Z,8.14
2022-12-14T15:27:30.403Z,8.03
2022-12-14T15:30:05.517Z,8.13
2022-12-14T15:32:33.178Z,8.05
2022-12-14T15:35:08.484Z,8.02
2022-12-14T15:37:54.709Z,8.02
2022-12-14T15:40:26.817Z,8.01
2022-12-14T15:42:59.054Z,7.98
2022-12-14T15:45:31.693Z,8.02
2022-12-14T15:48:15.666Z,7.96
2022-12-14T15:50:46.460Z,7.93
2022-12-14T15:53:18.418Z,7.93
2022-12-14T15:55:53.524Z,7.92
2022-12-14T15:58:37.915Z,7.91
2022-12-14T16:01:07.243Z,7.93
2022-12-14T16:03:40.607Z,7.94
2022-12-14T16:06:10.447Z,8.02
2022-12-14T16:08:40.249Z,8.00
2022-12-14T16:11:19.558Z,8.04
2022-12-14T16:13:47.115Z,8.02
2022-12-14T16:16:14.564Z,8.03
2022-12-14T16:18:51.343Z,8.02
2022-12-14T16:21:28.902Z,8.03
2022-12-14T16:23:56.503Z,8.05
2022-12-14T16:26:37.522Z,8.04
2022-12-14T16:29:09.233Z,8.04
2022-12-14T16:31:37.343Z,8.02
2022-12-14T16:34:14.151Z,8.04
2022-12-14T16:36:40.949Z,8.01
2022-12-14T16:39:17.933Z,8.04
2022-12-14T16:41:52.762Z,8.04
2022-12-14T16:44:34.858Z,7.97
2022-12-14T16:47:01.443Z,7.84
2022-12-14T16:49:28.069Z,7.87
2022-12-14T16:52:12.640Z,7.86
2022-12-14T16:54:39.613Z,7.83
2022-12-14T16:57:21.965Z,7.83
2022-12-14T16:59:57.606Z,7.80
2022-12-14T17:02:32.063Z,7.77
2022-12-14T17:05:02.588Z,7.75
2022-12-14T17:07:31.858Z,7.80
2022-12-14T17:09:59.016Z,7.85
2022-12-14T17:12:26.599Z,7.85
2022-12-14T17:14:53.916Z,7.84
2022-12-14T17:17:35.730Z,7.79
2022-12-14T17:20:08.003Z,7.71
2022-12-14T17:22:37.397Z,7.74
2022-12-14T17:25:04.243Z,7.77
2022-12-14T17:27:30.928Z,7.73
2022-12-14T17:29:57.610Z,7.85
2022-12-14T17:32:28.647Z,7.84
2022-12-14T17:34:55.248Z,7.84
2022-12-14T17:37:23.631Z,7.85
2022-12-14T17:39:50.549Z,7.66
2022-12-14T17:42:20.885Z,7.65
2022-12-14T17:44:54.268Z,7.63
2022-12-14T17:47:20.965Z,7.62
2022-12-14T17:49:47.468Z,7.47
2022-12-14T17:52:20.758Z,7.43
2022-12-14T17:54:47.740Z,7.49
2022-12-14T17:57:23.719Z,7.48
2022-12-14T18:00:10.744Z,7.45
2022-12-14T18:02:37.935Z,7.24
2022-12-14T18:05:04.864Z,7.25
2022-12-14T18:07:31.654Z,7.29
2022-12-14T18:09:58.387Z,7.19
2022-12-14T18:12:25.856Z,7.23
2022-12-14T18:14:52.621Z,7.12
2022-12-14T18:17:19.264Z,7.18
2022-12-14T18:19:47.759Z,7.17
2022-12-14T18:22:16.010Z,7.18
2022-12-14T18:24:42.532Z,7.11
2022-12-14T18:27:09.115Z,7.17
2022-12-14T18:29:35.768Z,7.15
2022-12-14T18:32:02.758Z,7.00
2022-12-14T18:34:29.372Z,7.05
2022-12-14T18:36:55.917Z,6.94
2022-12-14T18:39:22.469Z,6.91
2022-12-14T18:41:49.068Z,6.89
2022-12-14T18:44:15.599Z,6.89
2022-12-14T18:46:42.468Z,6.99
2022-12-14T18:49:09.252Z,6.92
2022-12-14T18:51:35.923Z,6.81
2022-12-14T18:54:03.311Z,6.84
2022-12-14T18:56:29.844Z,6.79
2022-12-14T18:58:56.511Z,6.79
2022-12-14T19:01:24.891Z,6.82
2022-12-14T19:03:52.031Z,6.85
2022-12-14T19:09:10.991Z,6.91
2022-12-14T19:11:41.611Z,7.03
2022-12-14T19:14:08.363Z,7.10
2022-12-14T19:16:35.056Z,7.05
2022-12-14T19:19:01.863Z,7.07
2022-12-14T19:21:29.728Z,7.13
2022-12-14T19:23:56.520Z,7.07
2022-12-14T19:26:23.443Z,7.04
2022-12-14T19:28:50.102Z,7.07
2022-12-14T19:31:16.871Z,7.01
2022-12-14T19:33:43.587Z,6.90
2022-12-14T19:36:10.637Z,6.88
2022-12-14T19:38:37.559Z,6.83
2022-12-14T19:41:09.011Z,6.90
2022-12-14T19:43:36.056Z,6.83
2022-12-14T19:46:11.005Z,6.98
2022-12-14T19:48:38.264Z,7.04
2022-12-14T19:51:10.774Z,6.90
2022-12-14T19:53:38.646Z,6.95
2022-12-14T19:56:05.748Z,6.89
2022-12-14T19:58:32.501Z,6.92
2022-12-14T20:00:59.087Z,6.97
2022-12-14T20:03:25.836Z,6.94
2022-12-14T20:05:55.699Z,6.92
2022-12-14T20:08:23.307Z,6.85
2022-12-14T20:10:50.390Z,6.80
2022-12-14T20:13:17.018Z,6.76
2022-12-14T20:15:51.702Z,6.72
2022-12-14T20:18:19.523Z,6.70
2022-12-14T20:20:49.299Z,6.69
2022-12-14T20:23:17.699Z,6.65
2022-12-14T20:25:44.722Z,6.67
2022-12-14T20:28:11.375Z,6.59
2022-12-14T20:30:46.807Z,6.68
2022-12-14T20:33:13.944Z,6.73
2022-12-14T20:35:40.620Z,6.70
2022-12-14T20:38:07.251Z,6.71
2022-12-14T20:40:38.435Z,6.66
2022-12-14T20:43:05.959Z,6.73
2022-12-14T20:45:37.676Z,6.71
2022-12-14T20:48:04.647Z,6.74
2022-12-14T20:50:31.398Z,6.80
2022-12-14T20:52:57.974Z,6.84
2022-12-14T20:55:24.588Z,6.84
2022-12-14T20:57:51.181Z,6.76
2022-12-14T21:00:17.973Z,6.87
2022-12-14T21:02:44.560Z,6.85
2022-12-14T21:05:11.272Z,6.88
2022-12-14T21:07:38.622Z,6.84
2022-12-14T21:10:06.890Z,6.89
2022-12-14T21:12:34.032Z,6.81
2022-12-14T21:15:00.760Z,6.71
2022-12-14T21:17:29.443Z,6.81
2022-12-14T21:19:57.203Z,6.77
2022-12-14T21:22:27.262Z,6.72
2022-12-14T21:25:03.646Z,6.78
2022-12-14T21:27:31.658Z,6.84
2022-12-14T21:29:58.477Z,6.90
2022-12-14T21:32:25.082Z,6.91
2022-12-14T21:34:52.013Z,6.89
2022-12-14T21:37:19.418Z,6.89
2022-12-14T21:39:52.260Z,6.83
2022-12-14T21:42:22.030Z,6.77
2022-12-14T21:44:49.585Z,6.83
2022-12-14T21:47:21.816Z,6.76
2022-12-14T21:49:48.778Z,6.74
2022-12-14T21:52:17.815Z,6.77
2022-12-14T21:54:44.852Z,6.78
2022-12-14T21:57:55.167Z,6.77
2022-12-14T22:00:21.821Z,6.86
2022-12-14T22:02:48.494Z,6.86
2022-12-14T22:05:15.166Z,6.87
2022-12-14T22:07:41.976Z,6.87
2022-12-14T22:10:08.699Z,6.90
2022-12-14T22:12:35.925Z,6.80
2022-12-14T22:15:02.423Z,6.78
2022-12-14T22:17:28.958Z,6.78
2022-12-14T22:19:55.562Z,6.70
2022-12-14T22:22:22.164Z,6.73
2022-12-14T22:24:51.183Z,6.66
2022-12-14T22:27:18.582Z,6.72
2022-12-14T22:29:45.097Z,6.72
2022-12-14T22:32:12.796Z,6.78
2022-12-14T22:34:39.416Z,6.73
2022-12-14T22:37:06.311Z,6.77
2022-12-14T22:39:32.859Z,6.75
2022-12-14T22:41:59.754Z,6.78
2022-12-14T22:44:26.446Z,6.79
2022-12-14T22:46:53.038Z,6.79
2022-12-14T22:49:20.274Z,6.81
2022-12-14T22:51:46.909Z,6.88
2022-12-14T22:54:25.114Z,6.88
2022-12-14T22:57:04.311Z,6.90
2022-12-14T22:59:37.286Z,6.93
2022-12-14T23:02:05.079Z,6.97
2022-12-14T23:04:31.928Z,7.02
2022-12-14T23:06:58.684Z,7.04
2022-12-14T23:09:43.792Z,7.13
2022-12-14T23:12:29.127Z,7.12
2022-12-14T23:15:14.225Z,7.07
2022-12-14T23:17:59.341Z,7.18
2022-12-14T23:20:44.716Z,7.18
2022-12-14T23:23:29.941Z,7.21
2022-12-14T23:26:20.498Z,7.15
2022-12-14T23:29:05.912Z,7.15
2022-12-14T23:31:51.210Z,7.26
2022-12-14T23:34:36.518Z,7.23
2022-12-14T23:37:21.328Z,7.31
2022-12-14T23:40:06.651Z,7.27
2022-12-14T23:42:51.774Z,7.25
2022-12-14T23:45:36.947Z,7.28
2022-12-14T23:48:22.295Z,7.35
2022-12-14T23:51:07.229Z,7.40
2022-12-14T23:53:52.296Z,7.47
2022-12-14T23:56:37.355Z,7.42
2022-12-14T23:59:26.336Z,7.41
